sensor_id;sensor_type;location;lat;lon;timestamp;P1;durP1;ratioP1;P2;durP2;ratioP2
58071;SDS011;60383;46.626;18.866;2023-03-17T00:00:11;12.60;;;7.30;;
58071;SDS011;60383;46.626;18.866;2023-03-17T00:02:38;12.10;;;7.90;;
58071;SDS011;60383;46.626;18.866;2023-03-17T00:05:25;10.90;;;6.45;;
58071;SDS011;60383;46.626;18.866;2023-03-17T00:07:55;11.52;;;7.10;;
58071;SDS011;60383;46.626;18.866;2023-03-17T00:10:28;13.88;;;7.72;;
58071;SDS011;60383;46.626;18.866;2023-03-17T00:12:53;13.63;;;7.40;;
58071;SDS011;60383;46.626;18.866;2023-03-17T00:15:20;11.40;;;6.45;;
58071;SDS011;60383;46.626;18.866;2023-03-17T00:17:46;13.43;;;8.30;;
58071;SDS011;60383;46.626;18.866;2023-03-17T00:20:15;13.25;;;7.75;;
58071;SDS011;60383;46.626;18.866;2023-03-17T00:22:46;13.07;;;7.07;;
58071;SDS011;60383;46.626;18.866;2023-03-17T00:25:32;12.93;;;7.30;;
58071;SDS011;60383;46.626;18.866;2023-03-17T00:27:59;13.13;;;7.22;;
58071;SDS011;60383;46.626;18.866;2023-03-17T00:30:27;11.82;;;7.03;;
58071;SDS011;60383;46.626;18.866;2023-03-17T00:32:54;11.98;;;6.95;;
58071;SDS011;60383;46.626;18.866;2023-03-17T00:37:49;11.70;;;6.80;;
58071;SDS011;60383;46.626;18.866;2023-03-17T00:40:20;13.50;;;6.68;;
58071;SDS011;60383;46.626;18.866;2023-03-17T00:42:51;12.60;;;6.78;;
58071;SDS011;60383;46.626;18.866;2023-03-17T00:45:17;10.18;;;6.18;;
58071;SDS011;60383;46.626;18.866;2023-03-17T00:47:45;10.32;;;6.32;;
58071;SDS011;60383;46.626;18.866;2023-03-17T00:50:13;10.68;;;6.50;;
58071;SDS011;60383;46.626;18.866;2023-03-17T00:52:41;9.35;;;6.40;;
58071;SDS011;60383;46.626;18.866;2023-03-17T00:55:07;14.05;;;6.90;;
58071;SDS011;60383;46.626;18.866;2023-03-17T00:57:37;16.40;;;8.15;;
58071;SDS011;60383;46.626;18.866;2023-03-17T01:00:05;10.43;;;7.68;;
58071;SDS011;60383;46.626;18.866;2023-03-17T01:02:41;11.40;;;6.50;;
58071;SDS011;60383;46.626;18.866;2023-03-17T01:05:06;10.80;;;5.90;;
58071;SDS011;60383;46.626;18.866;2023-03-17T01:07:32;10.20;;;5.97;;
58071;SDS011;60383;46.626;18.866;2023-03-17T01:09:57;8.82;;;6.05;;
58071;SDS011;60383;46.626;18.866;2023-03-17T01:12:23;10.45;;;5.75;;
58071;SDS011;60383;46.626;18.866;2023-03-17T01:14:50;7.72;;;5.53;;
58071;SDS011;60383;46.626;18.866;2023-03-17T01:17:16;11.10;;;5.78;;
58071;SDS011;60383;46.626;18.866;2023-03-17T01:19:43;9.25;;;5.82;;
58071;SDS011;60383;46.626;18.866;2023-03-17T01:22:09;7.90;;;5.72;;
58071;SDS011;60383;46.626;18.866;2023-03-17T01:24:35;10.50;;;5.50;;
58071;SDS011;60383;46.626;18.866;2023-03-17T01:27:01;9.45;;;6.13;;
58071;SDS011;60383;46.626;18.866;2023-03-17T01:29:29;12.25;;;6.07;;
58071;SDS011;60383;46.626;18.866;2023-03-17T01:31:54;10.70;;;5.65;;
58071;SDS011;60383;46.626;18.866;2023-03-17T01:34:20;8.38;;;5.63;;
58071;SDS011;60383;46.626;18.866;2023-03-17T01:36:46;9.50;;;5.40;;
58071;SDS011;60383;46.626;18.866;2023-03-17T01:39:12;9.63;;;4.93;;
58071;SDS011;60383;46.626;18.866;2023-03-17T01:41:38;8.70;;;4.55;;
58071;SDS011;60383;46.626;18.866;2023-03-17T01:44:04;6.78;;;4.60;;
58071;SDS011;60383;46.626;18.866;2023-03-17T01:46:32;10.35;;;6.43;;
58071;SDS011;60383;46.626;18.866;2023-03-17T01:57:11;7.47;;;4.82;;
58071;SDS011;60383;46.626;18.866;2023-03-17T01:59:48;8.82;;;4.78;;
58071;SDS011;60383;46.626;18.866;2023-03-17T02:02:19;9.45;;;5.93;;
58071;SDS011;60383;46.626;18.866;2023-03-17T02:04:50;10.80;;;7.15;;
58071;SDS011;60383;46.626;18.866;2023-03-17T02:07:17;8.30;;;5.57;;
58071;SDS011;60383;46.626;18.866;2023-03-17T02:09:45;9.70;;;5.38;;
58071;SDS011;60383;46.626;18.866;2023-03-17T02:12:11;8.05;;;4.55;;
58071;SDS011;60383;46.626;18.866;2023-03-17T02:14:37;7.47;;;4.22;;
58071;SDS011;60383;46.626;18.866;2023-03-17T02:17:03;7.28;;;4.70;;
58071;SDS011;60383;46.626;18.866;2023-03-17T02:19:29;6.40;;;4.05;;
58071;SDS011;60383;46.626;18.866;2023-03-17T02:21:55;6.40;;;3.75;;
58071;SDS011;60383;46.626;18.866;2023-03-17T02:26:50;8.10;;;4.90;;
58071;SDS011;60383;46.626;18.866;2023-03-17T02:29:19;11.38;;;7.70;;
58071;SDS011;60383;46.626;18.866;2023-03-17T02:31:47;13.45;;;7.65;;
58071;SDS011;60383;46.626;18.866;2023-03-17T02:34:13;11.60;;;6.95;;
58071;SDS011;60383;46.626;18.866;2023-03-17T02:36:39;9.27;;;5.85;;
58071;SDS011;60383;46.626;18.866;2023-03-17T02:39:05;13.48;;;7.50;;
58071;SDS011;60383;46.626;18.866;2023-03-17T02:41:32;12.05;;;6.60;;
58071;SDS011;60383;46.626;18.866;2023-03-17T02:43:58;7.47;;;5.15;;
58071;SDS011;60383;46.626;18.866;2023-03-17T02:46:24;10.05;;;5.95;;
58071;SDS011;60383;46.626;18.866;2023-03-17T02:48:51;8.80;;;5.20;;
58071;SDS011;60383;46.626;18.866;2023-03-17T02:51:16;10.40;;;5.80;;
58071;SDS011;60383;46.626;18.866;2023-03-17T02:53:42;8.20;;;5.53;;
58071;SDS011;60383;46.626;18.866;2023-03-17T02:56:07;9.63;;;5.00;;
58071;SDS011;60383;46.626;18.866;2023-03-17T02:58:33;8.50;;;5.30;;
58071;SDS011;60383;46.626;18.866;2023-03-17T03:00:59;9.75;;;5.00;;
58071;SDS011;60383;46.626;18.866;2023-03-17T03:03:25;8.70;;;4.78;;
58071;SDS011;60383;46.626;18.866;2023-03-17T03:05:50;7.63;;;4.35;;
58071;SDS011;60383;46.626;18.866;2023-03-17T03:08:16;6.18;;;3.95;;
58071;SDS011;60383;46.626;18.866;2023-03-17T03:10:41;7.32;;;4.07;;
58071;SDS011;60383;46.626;18.866;2023-03-17T03:13:07;7.97;;;4.22;;
58071;SDS011;60383;46.626;18.866;2023-03-17T03:15:33;7.10;;;4.28;;
58071;SDS011;60383;46.626;18.866;2023-03-17T03:17:58;7.70;;;4.00;;
58071;SDS011;60383;46.626;18.866;2023-03-17T03:20:24;7.57;;;4.25;;
58071;SDS011;60383;46.626;18.866;2023-03-17T03:22:49;7.05;;;4.07;;
58071;SDS011;60383;46.626;18.866;2023-03-17T03:25:15;7.97;;;4.15;;
58071;SDS011;60383;46.626;18.866;2023-03-17T03:27:41;6.30;;;3.85;;
58071;SDS011;60383;46.626;18.866;2023-03-17T03:30:06;9.23;;;4.72;;
58071;SDS011;60383;46.626;18.866;2023-03-17T03:32:33;8.63;;;4.80;;
58071;SDS011;60383;46.626;18.866;2023-03-17T03:34:58;7.95;;;5.30;;
58071;SDS011;60383;46.626;18.866;2023-03-17T03:37:24;8.98;;;5.68;;
58071;SDS011;60383;46.626;18.866;2023-03-17T03:39:50;11.52;;;5.90;;
58071;SDS011;60383;46.626;18.866;2023-03-17T03:42:16;10.48;;;5.45;;
58071;SDS011;60383;46.626;18.866;2023-03-17T03:44:42;10.20;;;5.03;;
58071;SDS011;60383;46.626;18.866;2023-03-17T03:47:07;7.95;;;4.55;;
58071;SDS011;60383;46.626;18.866;2023-03-17T03:49:33;9.80;;;4.72;;
58071;SDS011;60383;46.626;18.866;2023-03-17T03:51:58;7.50;;;4.50;;
58071;SDS011;60383;46.626;18.866;2023-03-17T03:54:24;7.63;;;4.20;;
58071;SDS011;60383;46.626;18.866;2023-03-17T03:56:49;6.90;;;4.38;;
58071;SDS011;60383;46.626;18.866;2023-03-17T03:59:15;9.63;;;5.10;;
58071;SDS011;60383;46.626;18.866;2023-03-17T04:01:40;8.93;;;5.03;;
58071;SDS011;60383;46.626;18.866;2023-03-17T04:04:06;9.52;;;4.90;;
58071;SDS011;60383;46.626;18.866;2023-03-17T04:06:31;9.85;;;5.60;;
58071;SDS011;60383;46.626;18.866;2023-03-17T04:08:57;10.02;;;4.95;;
58071;SDS011;60383;46.626;18.866;2023-03-17T04:11:22;9.93;;;5.15;;
58071;SDS011;60383;46.626;18.866;2023-03-17T04:13:48;7.40;;;5.00;;
58071;SDS011;60383;46.626;18.866;2023-03-17T04:16:13;6.93;;;4.75;;
58071;SDS011;60383;46.626;18.866;2023-03-17T04:18:38;10.15;;;5.05;;
58071;SDS011;60383;46.626;18.866;2023-03-17T04:21:04;6.63;;;4.53;;
58071;SDS011;60383;46.626;18.866;2023-03-17T04:23:32;9.90;;;5.18;;
58071;SDS011;60383;46.626;18.866;2023-03-17T04:25:58;8.32;;;4.93;;
58071;SDS011;60383;46.626;18.866;2023-03-17T04:28:23;9.10;;;4.95;;
58071;SDS011;60383;46.626;18.866;2023-03-17T04:30:49;9.10;;;4.75;;
58071;SDS011;60383;46.626;18.866;2023-03-17T04:33:14;7.68;;;4.80;;
58071;SDS011;60383;46.626;18.866;2023-03-17T04:35:40;10.32;;;5.50;;
58071;SDS011;60383;46.626;18.866;2023-03-17T04:38:06;10.65;;;6.05;;
58071;SDS011;60383;46.626;18.866;2023-03-17T04:40:32;12.45;;;6.28;;
58071;SDS011;60383;46.626;18.866;2023-03-17T04:42:58;12.45;;;7.13;;
58071;SDS011;60383;46.626;18.866;2023-03-17T04:45:23;14.80;;;7.72;;
58071;SDS011;60383;46.626;18.866;2023-03-17T04:47:49;14.73;;;7.40;;
58071;SDS011;60383;46.626;18.866;2023-03-17T04:50:15;12.65;;;7.30;;
58071;SDS011;60383;46.626;18.866;2023-03-17T04:52:42;10.60;;;6.80;;
58071;SDS011;60383;46.626;18.866;2023-03-17T04:55:07;11.18;;;6.50;;
58071;SDS011;60383;46.626;18.866;2023-03-17T04:57:34;10.90;;;6.68;;
58071;SDS011;60383;46.626;18.866;2023-03-17T05:00:00;10.60;;;6.63;;
58071;SDS011;60383;46.626;18.866;2023-03-17T05:02:26;10.13;;;6.57;;
58071;SDS011;60383;46.626;18.866;2023-03-17T05:04:52;11.65;;;7.18;;
58071;SDS011;60383;46.626;18.866;2023-03-17T05:07:17;9.63;;;6.72;;
58071;SDS011;60383;46.626;18.866;2023-03-17T05:09:43;11.13;;;7.05;;
58071;SDS011;60383;46.626;18.866;2023-03-17T05:12:08;12.05;;;7.40;;
58071;SDS011;60383;46.626;18.866;2023-03-17T05:14:35;14.32;;;7.32;;
58071;SDS011;60383;46.626;18.866;2023-03-17T05:17:01;12.25;;;7.32;;
58071;SDS011;60383;46.626;18.866;2023-03-17T05:19:26;16.00;;;10.35;;
58071;SDS011;60383;46.626;18.866;2023-03-17T05:21:52;12.38;;;7.97;;
58071;SDS011;60383;46.626;18.866;2023-03-17T05:24:17;14.48;;;9.18;;
58071;SDS011;60383;46.626;18.866;2023-03-17T05:26:43;12.05;;;7.57;;
58071;SDS011;60383;46.626;18.866;2023-03-17T05:29:09;11.13;;;7.18;;
58071;SDS011;60383;46.626;18.866;2023-03-17T05:31:35;10.85;;;7.30;;
58071;SDS011;60383;46.626;18.866;2023-03-17T05:34:01;11.30;;;7.90;;
58071;SDS011;60383;46.626;18.866;2023-03-17T05:36:28;10.77;;;8.23;;
58071;SDS011;60383;46.626;18.866;2023-03-17T05:38:53;11.00;;;7.43;;
58071;SDS011;60383;46.626;18.866;2023-03-17T05:41:19;11.60;;;7.13;;
58071;SDS011;60383;46.626;18.866;2023-03-17T05:43:45;9.95;;;6.95;;
58071;SDS011;60383;46.626;18.866;2023-03-17T05:46:11;11.50;;;7.63;;
58071;SDS011;60383;46.626;18.866;2023-03-17T05:48:37;11.45;;;7.88;;
58071;SDS011;60383;46.626;18.866;2023-03-17T05:51:03;11.13;;;7.57;;
58071;SDS011;60383;46.626;18.866;2023-03-17T05:53:28;10.73;;;7.80;;
58071;SDS011;60383;46.626;18.866;2023-03-17T05:55:55;9.30;;;7.15;;
58071;SDS011;60383;46.626;18.866;2023-03-17T05:58:21;9.27;;;6.85;;
58071;SDS011;60383;46.626;18.866;2023-03-17T06:00:46;10.80;;;6.88;;
58071;SDS011;60383;46.626;18.866;2023-03-17T06:03:12;9.80;;;6.72;;
58071;SDS011;60383;46.626;18.866;2023-03-17T06:05:38;9.27;;;6.60;;
58071;SDS011;60383;46.626;18.866;2023-03-17T06:08:03;12.60;;;6.78;;
58071;SDS011;60383;46.626;18.866;2023-03-17T06:10:29;9.20;;;6.35;;
58071;SDS011;60383;46.626;18.866;2023-03-17T06:12:55;9.45;;;7.03;;
58071;SDS011;60383;46.626;18.866;2023-03-17T06:15:21;12.38;;;8.23;;
58071;SDS011;60383;46.626;18.866;2023-03-17T06:17:46;11.73;;;7.80;;
58071;SDS011;60383;46.626;18.866;2023-03-17T06:20:12;11.27;;;7.40;;
58071;SDS011;60383;46.626;18.866;2023-03-17T06:22:38;11.57;;;7.78;;
58071;SDS011;60383;46.626;18.866;2023-03-17T06:25:04;14.18;;;7.97;;
58071;SDS011;60383;46.626;18.866;2023-03-17T06:27:30;10.57;;;7.70;;
58071;SDS011;60383;46.626;18.866;2023-03-17T06:29:56;12.77;;;8.07;;
58071;SDS011;60383;46.626;18.866;2023-03-17T06:32:22;13.85;;;7.82;;
58071;SDS011;60383;46.626;18.866;2023-03-17T06:34:48;10.75;;;8.10;;
58071;SDS011;60383;46.626;18.866;2023-03-17T06:37:14;12.10;;;7.78;;
58071;SDS011;60383;46.626;18.866;2023-03-17T06:39:40;10.80;;;7.60;;
58071;SDS011;60383;46.626;18.866;2023-03-17T06:42:06;12.35;;;8.02;;
58071;SDS011;60383;46.626;18.866;2023-03-17T06:44:32;16.60;;;8.55;;
58071;SDS011;60383;46.626;18.866;2023-03-17T06:46:57;9.73;;;7.28;;
58071;SDS011;60383;46.626;18.866;2023-03-17T06:49:23;11.40;;;7.82;;
58071;SDS011;60383;46.626;18.866;2023-03-17T06:51:48;11.18;;;7.25;;
58071;SDS011;60383;46.626;18.866;2023-03-17T06:54:13;11.90;;;8.13;;
58071;SDS011;60383;46.626;18.866;2023-03-17T06:56:39;9.88;;;6.40;;
58071;SDS011;60383;46.626;18.866;2023-03-17T06:59:05;10.70;;;6.95;;
58071;SDS011;60383;46.626;18.866;2023-03-17T07:01:30;8.88;;;6.47;;
58071;SDS011;60383;46.626;18.866;2023-03-17T07:03:56;11.65;;;7.57;;
58071;SDS011;60383;46.626;18.866;2023-03-17T07:06:21;10.32;;;6.65;;
58071;SDS011;60383;46.626;18.866;2023-03-17T07:08:50;8.70;;;6.22;;
58071;SDS011;60383;46.626;18.866;2023-03-17T07:11:16;9.38;;;6.38;;
58071;SDS011;60383;46.626;18.866;2023-03-17T07:13:41;12.05;;;6.88;;
58071;SDS011;60383;46.626;18.866;2023-03-17T07:16:07;10.75;;;6.45;;
58071;SDS011;60383;46.626;18.866;2023-03-17T07:18:33;9.07;;;6.25;;
58071;SDS011;60383;46.626;18.866;2023-03-17T07:20:59;10.77;;;6.53;;
58071;SDS011;60383;46.626;18.866;2023-03-17T07:23:28;10.32;;;6.95;;
58071;SDS011;60383;46.626;18.866;2023-03-17T07:25:54;10.85;;;6.70;;
58071;SDS011;60383;46.626;18.866;2023-03-17T07:28:22;8.98;;;6.18;;
58071;SDS011;60383;46.626;18.866;2023-03-17T07:30:48;10.73;;;5.70;;
58071;SDS011;60383;46.626;18.866;2023-03-17T07:33:13;9.80;;;5.60;;
58071;SDS011;60383;46.626;18.866;2023-03-17T07:35:45;9.07;;;5.80;;
58071;SDS011;60383;46.626;18.866;2023-03-17T07:38:12;9.30;;;5.95;;
58071;SDS011;60383;46.626;18.866;2023-03-17T07:40:38;8.85;;;5.72;;
58071;SDS011;60383;46.626;18.866;2023-03-17T07:43:03;8.63;;;5.55;;
58071;SDS011;60383;46.626;18.866;2023-03-17T07:45:29;6.93;;;5.18;;
58071;SDS011;60383;46.626;18.866;2023-03-17T07:47:55;6.40;;;4.63;;
58071;SDS011;60383;46.626;18.866;2023-03-17T07:50:20;7.05;;;4.53;;
58071;SDS011;60383;46.626;18.866;2023-03-17T07:52:46;7.72;;;4.43;;
58071;SDS011;60383;46.626;18.866;2023-03-17T07:55:11;10.20;;;6.07;;
58071;SDS011;60383;46.626;18.866;2023-03-17T07:57:37;8.65;;;5.05;;
58071;SDS011;60383;46.626;18.866;2023-03-17T08:00:07;7.05;;;4.95;;
58071;SDS011;60383;46.626;18.866;2023-03-17T08:02:33;10.67;;;5.30;;
58071;SDS011;60383;46.626;18.866;2023-03-17T08:05:00;9.23;;;5.50;;
58071;SDS011;60383;46.626;18.866;2023-03-17T08:07:27;9.45;;;5.80;;
58071;SDS011;60383;46.626;18.866;2023-03-17T08:09:53;7.63;;;4.97;;
58071;SDS011;60383;46.626;18.866;2023-03-17T08:12:18;10.65;;;5.60;;
58071;SDS011;60383;46.626;18.866;2023-03-17T08:14:44;8.07;;;5.57;;
58071;SDS011;60383;46.626;18.866;2023-03-17T08:17:09;11.65;;;6.65;;
58071;SDS011;60383;46.626;18.866;2023-03-17T08:19:35;8.55;;;5.18;;
58071;SDS011;60383;46.626;18.866;2023-03-17T08:22:01;10.43;;;5.53;;
58071;SDS011;60383;46.626;18.866;2023-03-17T08:24:26;8.88;;;5.30;;
58071;SDS011;60383;46.626;18.866;2023-03-17T08:26:51;7.95;;;5.30;;
58071;SDS011;60383;46.626;18.866;2023-03-17T08:29:17;6.43;;;4.65;;
58071;SDS011;60383;46.626;18.866;2023-03-17T08:31:43;7.53;;;4.85;;
58071;SDS011;60383;46.626;18.866;2023-03-17T08:34:08;7.13;;;4.45;;
58071;SDS011;60383;46.626;18.866;2023-03-17T08:36:34;6.57;;;4.00;;
58071;SDS011;60383;46.626;18.866;2023-03-17T08:39:00;9.07;;;5.28;;
58071;SDS011;60383;46.626;18.866;2023-03-17T08:41:27;6.80;;;4.18;;
58071;SDS011;60383;46.626;18.866;2023-03-17T08:43:52;6.72;;;4.13;;
58071;SDS011;60383;46.626;18.866;2023-03-17T08:46:22;7.28;;;3.60;;
58071;SDS011;60383;46.626;18.866;2023-03-17T08:48:50;6.13;;;3.80;;
58071;SDS011;60383;46.626;18.866;2023-03-17T08:51:18;6.32;;;4.00;;
58071;SDS011;60383;46.626;18.866;2023-03-17T08:53:44;7.18;;;3.80;;
58071;SDS011;60383;46.626;18.866;2023-03-17T08:56:10;6.22;;;3.55;;
58071;SDS011;60383;46.626;18.866;2023-03-17T08:58:37;6.15;;;4.15;;
58071;SDS011;60383;46.626;18.866;2023-03-17T09:01:04;5.40;;;3.58;;
58071;SDS011;60383;46.626;18.866;2023-03-17T09:03:31;4.57;;;3.47;;
58071;SDS011;60383;46.626;18.866;2023-03-17T09:05:57;5.97;;;3.55;;
58071;SDS011;60383;46.626;18.866;2023-03-17T09:08:24;8.20;;;3.90;;
58071;SDS011;60383;46.626;18.866;2023-03-17T09:10:51;5.07;;;3.60;;
58071;SDS011;60383;46.626;18.866;2023-03-17T09:13:17;6.45;;;3.42;;
58071;SDS011;60383;46.626;18.866;2023-03-17T09:15:43;6.10;;;3.45;;
58071;SDS011;60383;46.626;18.866;2023-03-17T09:18:08;5.53;;;3.50;;
58071;SDS011;60383;46.626;18.866;2023-03-17T09:20:34;5.25;;;3.25;;
58071;SDS011;60383;46.626;18.866;2023-03-17T09:23:00;9.38;;;4.80;;
58071;SDS011;60383;46.626;18.866;2023-03-17T09:25:30;5.63;;;3.45;;
58071;SDS011;60383;46.626;18.866;2023-03-17T09:27:56;5.82;;;3.88;;
58071;SDS011;60383;46.626;18.866;2023-03-17T09:30:22;8.20;;;4.28;;
58071;SDS011;60383;46.626;18.866;2023-03-17T09:32:50;4.63;;;3.25;;
58071;SDS011;60383;46.626;18.866;2023-03-17T09:35:15;8.10;;;4.07;;
58071;SDS011;60383;46.626;18.866;2023-03-17T09:37:41;4.95;;;3.60;;
58071;SDS011;60383;46.626;18.866;2023-03-17T09:40:07;5.00;;;3.72;;
58071;SDS011;60383;46.626;18.866;2023-03-17T09:47:45;6.63;;;3.10;;
58071;SDS011;60383;46.626;18.866;2023-03-17T09:53:48;6.97;;;3.60;;
58071;SDS011;60383;46.626;18.866;2023-03-17T09:56:21;6.55;;;3.40;;
58071;SDS011;60383;46.626;18.866;2023-03-17T10:01:57;7.10;;;3.60;;
58071;SDS011;60383;46.626;18.866;2023-03-17T10:04:22;5.72;;;3.22;;
58071;SDS011;60383;46.626;18.866;2023-03-17T10:06:48;7.32;;;3.88;;
58071;SDS011;60383;46.626;18.866;2023-03-17T10:11:46;5.60;;;3.28;;
58071;SDS011;60383;46.626;18.866;2023-03-17T10:14:29;7.82;;;3.45;;
58071;SDS011;60383;46.626;18.866;2023-03-17T10:17:18;5.20;;;3.10;;
58071;SDS011;60383;46.626;18.866;2023-03-17T10:22:50;4.68;;;3.40;;
58071;SDS011;60383;46.626;18.866;2023-03-17T10:25:30;5.35;;;3.08;;
58071;SDS011;60383;46.626;18.866;2023-03-17T10:27:59;4.72;;;3.00;;
58071;SDS011;60383;46.626;18.866;2023-03-17T10:30:35;6.05;;;3.13;;
58071;SDS011;60383;46.626;18.866;2023-03-17T10:33:01;3.45;;;2.70;;
58071;SDS011;60383;46.626;18.866;2023-03-17T10:35:31;5.28;;;3.50;;
58071;SDS011;60383;46.626;18.866;2023-03-17T10:38:00;4.65;;;3.05;;
58071;SDS011;60383;46.626;18.866;2023-03-17T10:40:37;6.47;;;3.10;;
58071;SDS011;60383;46.626;18.866;2023-03-17T10:43:04;6.10;;;3.30;;
58071;SDS011;60383;46.626;18.866;2023-03-17T10:45:37;6.72;;;3.38;;
58071;SDS011;60383;46.626;18.866;2023-03-17T10:48:08;4.85;;;3.28;;
58071;SDS011;60383;46.626;18.866;2023-03-17T10:50:38;4.22;;;3.03;;
58071;SDS011;60383;46.626;18.866;2023-03-17T10:53:13;6.60;;;3.42;;
58071;SDS011;60383;46.626;18.866;2023-03-17T10:55:52;4.88;;;3.15;;
58071;SDS011;60383;46.626;18.866;2023-03-17T10:58:22;6.03;;;3.25;;
58071;SDS011;60383;46.626;18.866;2023-03-17T11:03:59;5.15;;;3.40;;
58071;SDS011;60383;46.626;18.866;2023-03-17T11:06:32;4.68;;;2.88;;
58071;SDS011;60383;46.626;18.866;2023-03-17T11:09:09;5.07;;;2.97;;
58071;SDS011;60383;46.626;18.866;2023-03-17T11:11:47;4.18;;;2.65;;
58071;SDS011;60383;46.626;18.866;2023-03-17T11:19:22;4.80;;;2.80;;
58071;SDS011;60383;46.626;18.866;2023-03-17T11:27:44;3.65;;;2.50;;
58071;SDS011;60383;46.626;18.866;2023-03-17T11:46:14;3.65;;;2.30;;
58071;SDS011;60383;46.626;18.866;2023-03-17T11:51:22;6.55;;;2.60;;
58071;SDS011;60383;46.626;18.866;2023-03-17T11:56:51;4.38;;;3.00;;
58071;SDS011;60383;46.626;18.866;2023-03-17T11:59:26;6.13;;;2.92;;
58071;SDS011;60383;46.626;18.866;2023-03-17T12:04:47;3.38;;;2.53;;
58071;SDS011;60383;46.626;18.866;2023-03-17T12:10:25;3.65;;;2.47;;
58071;SDS011;60383;46.626;18.866;2023-03-17T12:13:03;3.72;;;2.17;;
58071;SDS011;60383;46.626;18.866;2023-03-17T12:23:26;2.78;;;2.10;;
58071;SDS011;60383;46.626;18.866;2023-03-17T12:26:04;4.22;;;2.40;;
58071;SDS011;60383;46.626;18.866;2023-03-17T12:28:37;3.47;;;2.30;;
58071;SDS011;60383;46.626;18.866;2023-03-17T12:31:54;3.97;;;2.40;;
58071;SDS011;60383;46.626;18.866;2023-03-17T12:34:21;4.38;;;2.70;;
58071;SDS011;60383;46.626;18.866;2023-03-17T12:36:52;5.50;;;2.40;;
58071;SDS011;60383;46.626;18.866;2023-03-17T12:39:23;3.85;;;2.50;;
58071;SDS011;60383;46.626;18.866;2023-03-17T12:48:19;4.00;;;2.53;;
58071;SDS011;60383;46.626;18.866;2023-03-17T12:56:09;7.43;;;2.78;;
58071;SDS011;60383;46.626;18.866;2023-03-17T12:58:44;3.33;;;2.22;;
58071;SDS011;60383;46.626;18.866;2023-03-17T13:04:03;3.63;;;2.67;;
58071;SDS011;60383;46.626;18.866;2023-03-17T13:06:53;4.75;;;2.65;;
58071;SDS011;60383;46.626;18.866;2023-03-17T13:09:28;5.18;;;2.67;;
58071;SDS011;60383;46.626;18.866;2023-03-17T13:11:58;2.83;;;2.38;;
58071;SDS011;60383;46.626;18.866;2023-03-17T13:14:41;4.93;;;2.53;;
58071;SDS011;60383;46.626;18.866;2023-03-17T13:20:02;3.30;;;2.40;;
58071;SDS011;60383;46.626;18.866;2023-03-17T13:22:38;5.28;;;2.45;;
58071;SDS011;60383;46.626;18.866;2023-03-17T13:25:32;3.53;;;2.53;;
58071;SDS011;60383;46.626;18.866;2023-03-17T13:49:02;4.25;;;2.92;;
58071;SDS011;60383;46.626;18.866;2023-03-17T13:51:40;5.15;;;2.88;;
58071;SDS011;60383;46.626;18.866;2023-03-17T13:59:13;3.13;;;2.58;;
58071;SDS011;60383;46.626;18.866;2023-03-17T14:04:20;5.72;;;2.50;;
58071;SDS011;60383;46.626;18.866;2023-03-17T14:06:49;3.78;;;2.47;;
58071;SDS011;60383;46.626;18.866;2023-03-17T14:11:46;6.35;;;3.47;;
58071;SDS011;60383;46.626;18.866;2023-03-17T14:17:23;7.50;;;4.30;;
58071;SDS011;60383;46.626;18.866;2023-03-17T14:20:05;6.78;;;4.13;;
58071;SDS011;60383;46.626;18.866;2023-03-17T14:22:44;5.32;;;2.90;;
58071;SDS011;60383;46.626;18.866;2023-03-17T14:25:19;6.93;;;2.80;;
58071;SDS011;60383;46.626;18.866;2023-03-17T14:27:48;4.78;;;3.03;;
58071;SDS011;60383;46.626;18.866;2023-03-17T14:30:20;5.30;;;3.47;;
58071;SDS011;60383;46.626;18.866;2023-03-17T14:33:11;4.88;;;2.75;;
58071;SDS011;60383;46.626;18.866;2023-03-17T14:35:37;4.63;;;2.50;;
58071;SDS011;60383;46.626;18.866;2023-03-17T14:38:44;6.13;;;3.58;;
58071;SDS011;60383;46.626;18.866;2023-03-17T14:43:24;5.80;;;2.55;;
58071;SDS011;60383;46.626;18.866;2023-03-17T14:45:51;4.45;;;2.58;;
58071;SDS011;60383;46.626;18.866;2023-03-17T14:48:25;4.80;;;2.83;;
58071;SDS011;60383;46.626;18.866;2023-03-17T14:50:55;3.83;;;2.42;;
58071;SDS011;60383;46.626;18.866;2023-03-17T14:53:33;5.18;;;2.80;;
58071;SDS011;60383;46.626;18.866;2023-03-17T14:56:03;4.32;;;2.70;;
58071;SDS011;60383;46.626;18.866;2023-03-17T14:58:30;3.17;;;2.38;;
58071;SDS011;60383;46.626;18.866;2023-03-17T15:04:04;4.63;;;2.70;;
58071;SDS011;60383;46.626;18.866;2023-03-17T15:06:35;5.68;;;2.95;;
58071;SDS011;60383;46.626;18.866;2023-03-17T15:09:24;4.28;;;2.80;;
58071;SDS011;60383;46.626;18.866;2023-03-17T15:11:51;6.05;;;2.80;;
58071;SDS011;60383;46.626;18.866;2023-03-17T15:14:30;5.00;;;2.67;;
58071;SDS011;60383;46.626;18.866;2023-03-17T15:17:00;3.17;;;2.30;;
58071;SDS011;60383;46.626;18.866;2023-03-17T15:19:27;5.55;;;2.63;;
58071;SDS011;60383;46.626;18.866;2023-03-17T15:22:04;5.00;;;2.90;;
58071;SDS011;60383;46.626;18.866;2023-03-17T15:24:50;5.55;;;2.55;;
58071;SDS011;60383;46.626;18.866;2023-03-17T15:27:23;3.97;;;2.40;;
58071;SDS011;60383;46.626;18.866;2023-03-17T15:29:48;4.35;;;2.75;;
58071;SDS011;60383;46.626;18.866;2023-03-17T15:32:15;5.20;;;2.50;;
58071;SDS011;60383;46.626;18.866;2023-03-17T15:34:46;3.83;;;2.60;;
58071;SDS011;60383;46.626;18.866;2023-03-17T15:37:19;4.35;;;2.30;;
58071;SDS011;60383;46.626;18.866;2023-03-17T15:39:47;4.78;;;2.75;;
58071;SDS011;60383;46.626;18.866;2023-03-17T15:42:14;3.97;;;2.53;;
58071;SDS011;60383;46.626;18.866;2023-03-17T15:44:43;6.30;;;2.65;;
58071;SDS011;60383;46.626;18.866;2023-03-17T15:47:13;3.97;;;2.80;;
58071;SDS011;60383;46.626;18.866;2023-03-17T15:49:41;3.55;;;2.25;;
58071;SDS011;60383;46.626;18.866;2023-03-17T15:52:26;3.13;;;2.38;;
58071;SDS011;60383;46.626;18.866;2023-03-17T15:54:53;4.95;;;2.53;;
58071;SDS011;60383;46.626;18.866;2023-03-17T15:57:20;6.13;;;2.75;;
58071;SDS011;60383;46.626;18.866;2023-03-17T15:59:46;4.35;;;2.60;;
58071;SDS011;60383;46.626;18.866;2023-03-17T16:04:58;5.63;;;2.90;;
58071;SDS011;60383;46.626;18.866;2023-03-17T16:07:26;3.20;;;2.33;;
58071;SDS011;60383;46.626;18.866;2023-03-17T16:09:52;3.47;;;2.83;;
58071;SDS011;60383;46.626;18.866;2023-03-17T16:12:17;4.55;;;3.13;;
58071;SDS011;60383;46.626;18.866;2023-03-17T16:14:43;5.05;;;3.00;;
58071;SDS011;60383;46.626;18.866;2023-03-17T16:17:22;5.15;;;2.90;;
58071;SDS011;60383;46.626;18.866;2023-03-17T16:19:52;3.53;;;2.47;;
58071;SDS011;60383;46.626;18.866;2023-03-17T16:22:30;4.63;;;2.58;;
58071;SDS011;60383;46.626;18.866;2023-03-17T16:25:00;3.78;;;2.75;;
58071;SDS011;60383;46.626;18.866;2023-03-17T16:27:27;5.38;;;2.90;;
58071;SDS011;60383;46.626;18.866;2023-03-17T16:29:52;4.18;;;2.40;;
58071;SDS011;60383;46.626;18.866;2023-03-17T16:32:18;4.97;;;2.80;;
58071;SDS011;60383;46.626;18.866;2023-03-17T16:34:43;4.80;;;2.60;;
58071;SDS011;60383;46.626;18.866;2023-03-17T16:37:15;5.18;;;2.72;;
58071;SDS011;60383;46.626;18.866;2023-03-17T16:39:40;4.47;;;2.60;;
58071;SDS011;60383;46.626;18.866;2023-03-17T16:42:22;6.05;;;2.88;;
58071;SDS011;60383;46.626;18.866;2023-03-17T16:44:48;5.57;;;2.90;;
58071;SDS011;60383;46.626;18.866;2023-03-17T16:47:14;4.63;;;2.53;;
58071;SDS011;60383;46.626;18.866;2023-03-17T16:49:40;3.95;;;2.75;;
58071;SDS011;60383;46.626;18.866;2023-03-17T16:52:05;4.93;;;2.72;;
58071;SDS011;60383;46.626;18.866;2023-03-17T16:54:31;5.90;;;2.80;;
58071;SDS011;60383;46.626;18.866;2023-03-17T16:56:58;4.88;;;2.72;;